Archival Weather

Half Moon Bay

Half Moon Bay, California (KHAF)

Report from: Thursday, September 21, 2023 9:35 PM PDT
Current time: Tuesday, February 27, 2024 1:46 AM PST

Current weather – Weather history – Daily summaries
Weather forecast

Present weatherHaze
Temperature16.0°C (60.8°F)
Dew point14.0°C (57.2°F)
Winds 6 kts (3.1 m/s, 6.9 mph) South (180°)
Visibility4 mi. (6.4 km)
Clouds Ceiling: Overcast 1,800 ft. (549 m)
Altimeter29.95 in.Hg (1014 mB)
Relative humidity88 %
Density altitude307 ft. (94 m)
Remarks Fully automated report
Automated weather observing station with precipitation discriminator
Flight conditions Marginal Visual Meteorological Conditions
Raw dataKHAF 220435Z AUTO 18006KT 4SM HZ OVC018 16/14 A2995 RMK AO2
An error has occurred. This application may no longer respond until reloaded. Reload 🗙